createdAt,value
2022-12-18T00:01:59.762Z,90.35
2022-12-18T00:07:03.894Z,89.75
2022-12-18T00:17:20.007Z,80.10
2022-12-18T00:22:22.915Z,95.10
2022-12-18T00:27:25.793Z,87.00
2022-12-18T00:32:30.053Z,63.30
2022-12-18T00:37:32.921Z,69.35
2022-12-18T00:42:54.427Z,84.43
2022-12-18T00:47:59.394Z,81.65
2022-12-18T00:53:02.133Z,85.88
2022-12-18T00:58:05.001Z,82.82
2022-12-18T01:03:09.473Z,86.13
2022-12-18T01:08:13.298Z,77.17
2022-12-18T01:13:19.222Z,84.45
2022-12-18T01:18:26.298Z,77.93
2022-12-18T01:23:29.181Z,73.55
2022-12-18T01:28:32.112Z,82.70
2022-12-18T01:33:36.774Z,93.38
2022-12-18T01:38:39.967Z,91.20
2022-12-18T01:43:49.806Z,91.20
2022-12-18T01:48:57.502Z,85.20
2022-12-18T01:54:01.363Z,84.65
2022-12-18T01:59:08.281Z,84.47
2022-12-18T02:04:23.789Z,85.70
2022-12-18T02:09:33.150Z,99.65
2022-12-18T02:14:42.707Z,95.97
2022-12-18T02:20:04.340Z,97.90
2022-12-18T02:25:23.905Z,88.35
2022-12-18T02:30:31.083Z,82.32
2022-12-18T02:35:36.311Z,96.18
2022-12-18T02:40:41.668Z,85.97
2022-12-18T02:51:01.601Z,69.78
2022-12-18T02:56:10.433Z,86.85
2022-12-18T03:01:21.666Z,80.43
2022-12-18T03:06:28.081Z,98.03
2022-12-18T03:11:53.089Z,91.53
2022-12-18T03:17:01.219Z,99.15
2022-12-18T03:22:07.086Z,94.65
2022-12-18T03:27:22.016Z,93.28
2022-12-18T03:32:33.440Z,88.20
2022-12-18T03:37:37.034Z,89.90
2022-12-18T03:42:48.759Z,98.05
2022-12-18T03:48:07.397Z,79.60
2022-12-18T03:53:25.119Z,75.25
2022-12-18T03:58:30.978Z,86.10
2022-12-18T04:03:50.215Z,81.93
2022-12-18T04:08:55.786Z,79.32
2022-12-18T04:14:05.868Z,89.55
2022-12-18T04:19:11.752Z,88.28
2022-12-18T04:24:18.101Z,82.88
2022-12-18T04:29:30.558Z,97.60
2022-12-18T04:34:34.961Z,81.97
2022-12-18T04:39:37.808Z,92.00
2022-12-18T04:44:46.083Z,80.20
2022-12-18T04:49:50.238Z,73.10
2022-12-18T04:54:52.998Z,79.53
2022-12-18T04:59:55.765Z,83.78
2022-12-18T05:04:59.851Z,79.68
2022-12-18T05:10:02.561Z,85.40
2022-12-18T05:15:06.297Z,77.80
2022-12-18T05:20:11.826Z,89.78
2022-12-18T05:25:14.716Z,77.78
2022-12-18T05:43:20.805Z,64.63
2022-12-18T05:48:24.337Z,76.13
2022-12-18T05:53:27.241Z,65.28
2022-12-18T05:58:32.299Z,58.80
2022-12-18T06:03:35.166Z,47.93
2022-12-18T06:08:41.531Z,58.88
2022-12-18T06:13:57.652Z,72.25
2022-12-18T06:19:02.797Z,70.88
2022-12-18T06:24:05.970Z,83.50
2022-12-18T06:29:10.382Z,70.95
2022-12-18T06:34:13.289Z,69.28
2022-12-18T06:39:16.117Z,64.78
2022-12-18T06:44:20.503Z,68.07
2022-12-18T06:49:27.352Z,66.50
2022-12-18T06:54:33.034Z,70.80
2022-12-18T06:59:37.261Z,67.00
2022-12-18T07:04:40.106Z,57.90
2022-12-18T07:09:42.825Z,68.60
2022-12-18T07:14:47.136Z,77.20
2022-12-18T07:19:50.245Z,69.05
2022-12-18T07:24:52.992Z,65.57
2022-12-18T07:29:57.222Z,85.68
2022-12-18T07:34:59.971Z,73.75
2022-12-18T07:40:03.022Z,72.53
2022-12-18T07:45:08.621Z,102.47
2022-12-18T07:50:11.721Z,90.80
2022-12-18T07:55:14.578Z,80.10
2022-12-18T08:00:19.461Z,65.43
2022-12-18T08:05:24.514Z,56.88
2022-12-18T08:10:27.396Z,67.45
2022-12-18T08:15:31.780Z,61.95
2022-12-18T08:20:34.630Z,67.22
2022-12-18T08:25:37.410Z,73.90
2022-12-18T08:30:41.565Z,63.05
2022-12-18T08:35:46.182Z,81.45
2022-12-18T08:40:49.102Z,65.78
2022-12-18T08:45:53.332Z,70.85
2022-12-18T08:50:57.273Z,59.85
2022-12-18T08:56:00.099Z,70.05
2022-12-18T09:01:06.173Z,60.50
2022-12-18T09:06:09.296Z,59.67
2022-12-18T09:11:15.714Z,55.55
2022-12-18T09:21:23.625Z,60.20
2022-12-18T09:26:27.580Z,66.18
2022-12-18T09:31:31.925Z,50.22
2022-12-18T09:36:34.728Z,59.80
2022-12-18T09:41:45.034Z,46.05
2022-12-18T09:46:54.484Z,53.72
2022-12-18T09:52:02.626Z,62.40
2022-12-18T09:57:06.396Z,58.83
2022-12-18T10:02:23.470Z,53.97
2022-12-18T10:07:36.174Z,57.08
2022-12-18T10:12:48.901Z,45.97
2022-12-18T10:18:00.378Z,49.28
2022-12-18T10:23:11.390Z,52.10
2022-12-18T10:28:16.995Z,30.70
2022-12-18T10:33:23.383Z,64.40
2022-12-18T10:38:28.717Z,48.72
2022-12-18T10:43:33.162Z,47.05
2022-12-18T10:48:42.133Z,52.95
2022-12-18T10:53:55.530Z,53.20
2022-12-18T10:59:03.416Z,60.70
2022-12-18T11:04:11.493Z,62.75
2022-12-18T11:09:22.911Z,47.92
2022-12-18T11:14:28.009Z,49.92
2022-12-18T11:19:36.556Z,48.38
2022-12-18T11:24:39.370Z,62.63
2022-12-18T11:29:46.636Z,57.50
2022-12-18T11:34:59.176Z,56.15
2022-12-18T11:40:08.269Z,46.15
2022-12-18T11:45:26.800Z,53.15
2022-12-18T11:50:40.184Z,71.40
2022-12-18T11:55:51.774Z,61.80
2022-12-18T12:01:02.315Z,58.92
2022-12-18T12:06:18.670Z,56.20
2022-12-18T12:11:30.513Z,52.97
2022-12-18T12:16:40.806Z,51.83
2022-12-18T12:21:53.383Z,53.42
2022-12-18T12:27:07.109Z,57.03
2022-12-18T12:32:24.713Z,56.15
2022-12-18T12:37:42.991Z,55.90
2022-12-18T12:43:07.528Z,54.58
2022-12-18T12:48:19.514Z,69.05
2022-12-18T12:53:31.090Z,53.83
2022-12-18T12:58:39.815Z,52.63
2022-12-18T13:03:51.042Z,63.75
2022-12-18T13:08:58.152Z,57.60
2022-12-18T13:14:00.885Z,59.35
2022-12-18T13:19:05.720Z,68.63
2022-12-18T13:24:26.791Z,73.45
2022-12-18T13:29:45.959Z,69.00
2022-12-18T13:34:48.896Z,76.32
2022-12-18T13:39:53.235Z,68.43
2022-12-18T13:44:56.097Z,74.95
2022-12-18T13:49:59.568Z,69.85
2022-12-18T13:55:07.573Z,76.28
2022-12-18T14:00:29.531Z,74.13
2022-12-18T14:05:40.188Z,89.27
2022-12-18T14:10:50.205Z,81.88
2022-12-18T14:15:53.564Z,83.97
2022-12-18T14:21:02.526Z,89.07
2022-12-18T14:26:24.743Z,63.97
2022-12-18T14:31:29.877Z,87.80
2022-12-18T14:36:33.209Z,67.27
2022-12-18T14:41:37.308Z,86.53
2022-12-18T14:46:42.597Z,72.57
2022-12-18T14:51:50.382Z,86.13
2022-12-18T14:57:01.913Z,83.82
2022-12-18T15:02:12.262Z,71.38
2022-12-18T15:07:18.120Z,105.85
2022-12-18T15:12:31.025Z,98.95
2022-12-18T15:17:33.858Z,79.03
2022-12-18T15:22:38.229Z,63.80
2022-12-18T15:27:49.274Z,76.78
2022-12-18T15:32:53.758Z,75.65
2022-12-18T15:37:56.656Z,103.65
2022-12-18T15:43:18.370Z,98.25
2022-12-18T15:48:24.612Z,135.90
2022-12-18T15:53:31.118Z,108.95
2022-12-18T16:03:38.808Z,96.70
2022-12-18T16:08:42.028Z,107.88
2022-12-18T16:13:46.310Z,106.97
2022-12-18T16:18:49.013Z,86.47
2022-12-18T16:23:51.884Z,99.80
2022-12-18T16:28:56.064Z,88.13
2022-12-18T16:34:22.970Z,69.07
2022-12-18T16:39:28.290Z,99.97
2022-12-18T16:44:32.366Z,115.80
2022-12-18T16:49:35.257Z,114.45
2022-12-18T16:54:38.316Z,111.72
2022-12-18T16:59:43.261Z,101.88
2022-12-18T17:04:47.674Z,120.50
2022-12-18T17:09:51.544Z,107.90
2022-12-18T17:14:56.360Z,100.03
2022-12-18T17:19:59.204Z,50.70
2022-12-18T17:25:02.039Z,112.57
2022-12-18T17:30:07.808Z,111.03
2022-12-18T17:35:11.664Z,117.93
2022-12-18T17:40:15.409Z,66.50
2022-12-18T17:45:19.978Z,112.43
2022-12-18T17:50:22.733Z,114.30
2022-12-18T17:55:25.854Z,111.47
2022-12-18T18:00:30.105Z,120.03
2022-12-18T18:05:35.616Z,129.93
2022-12-18T18:10:39.197Z,110.75
2022-12-18T18:15:43.490Z,113.75
2022-12-18T18:20:46.292Z,97.75
2022-12-18T18:25:49.287Z,110.53
2022-12-18T18:30:54.532Z,115.05
2022-12-18T18:35:57.389Z,121.25
2022-12-18T18:41:00.942Z,106.90
2022-12-18T18:46:06.781Z,112.70
2022-12-18T18:51:12.504Z,113.87
2022-12-18T18:56:56.164Z,120.90
2022-12-18T19:01:44.280Z,107.68
2022-12-18T19:06:49.001Z,112.95
2022-12-18T19:12:09.805Z,101.72
2022-12-18T19:17:14.038Z,103.70
2022-12-18T19:22:17.012Z,105.18
2022-12-18T19:27:19.846Z,122.47
2022-12-18T19:32:24.148Z,123.78
2022-12-18T19:37:27.018Z,101.65
2022-12-18T19:42:35.292Z,105.05
2022-12-18T19:47:39.914Z,111.43
2022-12-18T19:52:42.707Z,83.47
2022-12-18T19:57:45.765Z,100.55
2022-12-18T20:02:50.848Z,98.28
2022-12-18T20:07:53.827Z,100.15
2022-12-18T20:12:56.686Z,104.45
2022-12-18T20:18:02.060Z,109.43
2022-12-18T20:23:06.549Z,114.73
2022-12-18T20:28:09.375Z,106.10
2022-12-18T20:33:13.551Z,66.97
2022-12-18T20:38:16.354Z,105.15
2022-12-18T20:43:20.661Z,97.93
2022-12-18T20:48:26.753Z,108.63
2022-12-18T20:53:29.921Z,113.20
2022-12-18T20:58:32.849Z,102.78
2022-12-18T21:03:37.225Z,106.43
2022-12-18T21:08:40.253Z,106.18
2022-12-18T21:13:43.069Z,107.10
2022-12-18T21:18:47.253Z,136.25
2022-12-18T21:23:50.019Z,94.18
2022-12-18T21:28:55.609Z,101.97
2022-12-18T21:34:02.001Z,109.03
2022-12-18T21:39:05.736Z,97.60
2022-12-18T21:44:09.595Z,112.97
2022-12-18T21:49:17.272Z,114.90
2022-12-18T21:54:20.710Z,94.38
2022-12-18T21:59:25.664Z,99.70
2022-12-18T22:04:30.560Z,99.53
2022-12-18T22:09:34.358Z,114.43
2022-12-18T22:14:37.303Z,97.97
2022-12-18T22:19:43.466Z,102.88
2022-12-18T22:24:46.417Z,96.90
2022-12-18T22:30:07.193Z,102.03
2022-12-18T22:35:15.808Z,92.30
2022-12-18T22:40:25.497Z,96.13
2022-12-18T22:45:28.869Z,114.28
2022-12-18T22:50:33.708Z,94.55
2022-12-18T22:55:36.622Z,105.15
2022-12-18T23:00:39.599Z,97.60
2022-12-18T23:05:43.850Z,73.90
2022-12-18T23:10:46.775Z,104.05
2022-12-18T23:15:49.610Z,103.20
2022-12-18T23:20:53.801Z,98.15
2022-12-18T23:26:02.078Z,82.28
2022-12-18T23:31:06.781Z,93.75
2022-12-18T23:36:11.676Z,102.05
2022-12-18T23:41:16.706Z,107.05
2022-12-18T23:46:21.404Z,95.78
2022-12-18T23:51:25.724Z,102.95
2022-12-18T23:56:29.934Z,92.22
